Time;durP1;ratioP1;P1;durP2;ratioP2;P2;SDS_P1;SDS_P2;PMS_P1;PMS_P2;Temp;Humidity;BMP_temperature;BMP_pressure;BME280_temperature;BME280_humidity;BME280_pressure;Samples;Min_cycle;Max_cycle;Signal;HPM_P1;HPM_P2
2023/10/07 00:00:59;;;;;;;0.10;0.10;;;;;;;1.80;85.81;98984.53;4964568;28;20057;-68
2023/10/07 00:03:29;;;;;;;0.10;0.10;;;;;;;1.76;86.16;98977.97;4982436;28;20117;-68
2023/10/07 00:06:01;;;;;;;0.00;0.00;;;;;;;1.74;86.40;98981.97;4959705;28;20059;-67
2023/10/07 00:08:28;;;;;;;0.10;0.10;;;;;;;1.75;86.71;98975.50;4964152;28;20054;-67
2023/10/07 00:10:59;;;;;;;0.10;0.10;;;;;;;1.71;86.53;98980.53;4964275;28;20133;-67
2023/10/07 00:13:31;;;;;;;0.10;0.10;;;;;;;1.63;86.80;98959.38;4928560;28;20145;-68
2023/10/07 00:16:00;;;;;;;0.00;0.00;;;;;;;1.66;87.05;98969.66;4949973;28;20122;-66
2023/10/07 00:18:28;;;;;;;0.10;0.10;;;;;;;1.65;87.66;98968.03;4965717;28;20058;-67
2023/10/07 00:20:55;;;;;;;0.10;0.10;;;;;;;1.60;88.21;98966.03;4965785;28;20055;-67
2023/10/07 00:23:26;;;;;;;0.10;0.10;;;;;;;1.61;88.56;98964.97;4965904;28;20054;-67
2023/10/07 00:25:58;;;;;;;0.10;0.10;;;;;;;1.62;88.75;98960.41;4952940;28;20058;-68
2023/10/07 00:28:32;;;;;;;0.10;0.10;;;;;;;1.62;88.99;98947.75;4954498;28;20050;-67
2023/10/07 00:31:02;;;;;;;0.00;0.00;;;;;;;1.57;88.60;98950.34;4949174;28;20046;-67
2023/10/07 00:33:50;;;;;;;0.00;0.00;;;;;;;1.57;88.51;98960.31;4977897;28;20046;-67
2023/10/07 00:36:41;;;;;;;0.10;0.10;;;;;;;1.59;88.39;98959.00;4938643;28;20058;-67
2023/10/07 00:39:08;;;;;;;0.00;0.00;;;;;;;1.58;88.51;98953.88;4965741;28;20038;-68
2023/10/07 00:41:48;;;;;;;0.00;0.00;;;;;;;1.60;88.47;98943.69;4975114;28;20050;-67
2023/10/07 00:44:22;;;;;;;0.03;0.03;;;;;;;1.60;88.01;98954.47;4974040;28;20062;-67
2023/10/07 00:47:07;;;;;;;0.00;0.00;;;;;;;1.57;87.76;98952.25;4947506;28;20139;-67
2023/10/07 00:52:12;;;;;;;0.00;0.00;;;;;;;1.47;87.83;98936.63;4971781;28;20594;-67
2023/10/07 00:57:23;;;;;;;0.10;0.10;;;;;;;1.34;87.68;98935.84;4945587;28;20503;-68
2023/10/07 00:59:51;;;;;;;0.00;0.00;;;;;;;1.29;87.86;98927.63;4953397;28;20061;-69
2023/10/07 01:02:29;;;;;;;0.10;0.10;;;;;;;1.25;88.34;98921.09;4966345;28;20046;-67
2023/10/07 01:05:06;;;;;;;0.00;0.00;;;;;;;1.26;88.25;98912.78;4945037;28;20069;-67
2023/10/07 01:07:36;;;;;;;0.00;0.00;;;;;;;1.28;88.50;98909.84;4965595;28;20046;-67
2023/10/07 01:12:44;;;;;;;0.10;0.10;;;;;;;1.27;88.01;98903.66;4961431;28;20523;-67
2023/10/07 01:15:23;;;;;;;0.00;0.00;;;;;;;1.29;88.13;98900.69;4982928;28;20168;-67
2023/10/07 01:18:14;;;;;;;0.00;0.00;;;;;;;1.28;88.45;98882.91;4985901;28;20057;-68
2023/10/07 01:23:24;;;;;;;0.00;0.00;;;;;;;1.31;89.53;98892.41;4977900;28;20445;-67
2023/10/07 01:25:51;;;;;;;0.10;0.10;;;;;;;1.32;89.58;98886.75;4964724;28;20110;-67
2023/10/07 01:28:17;;;;;;;0.00;0.00;;;;;;;1.34;89.75;98884.69;4962686;28;20058;-67
2023/10/07 01:31:07;;;;;;;0.00;0.00;;;;;;;1.31;89.82;98878.94;4962777;28;20599;-67
2023/10/07 01:33:45;;;;;;;0.00;0.00;;;;;;;1.29;89.95;98883.75;4969256;28;20427;-68
2023/10/07 01:36:24;;;;;;;0.00;0.00;;;;;;;1.25;89.86;98881.53;4979266;28;20046;-67
2023/10/07 01:38:53;;;;;;;0.00;0.00;;;;;;;1.22;90.14;98884.66;4963285;28;20530;-67
2023/10/07 01:41:27;;;;;;;0.00;0.00;;;;;;;1.24;90.36;98892.53;4965897;28;20054;-67
2023/10/07 01:44:04;;;;;;;0.10;0.10;;;;;;;1.21;89.96;98868.75;4980583;28;20050;-67
2023/10/07 01:46:33;;;;;;;0.10;0.10;;;;;;;1.17;89.52;98871.09;4943256;28;20210;-67
2023/10/07 01:49:04;;;;;;;0.03;0.03;;;;;;;1.17;89.54;98873.78;4965146;28;20390;-68
2023/10/07 01:51:31;;;;;;;0.10;0.10;;;;;;;1.19;88.58;98879.75;4963243;28;20047;-68
2023/10/07 01:54:03;;;;;;;0.10;0.10;;;;;;;1.11;88.42;98867.47;4963365;28;20132;-67
2023/10/07 01:56:32;;;;;;;0.00;0.00;;;;;;;1.11;88.74;98869.34;4969326;28;20050;-70
2023/10/07 01:59:17;;;;;;;0.10;0.10;;;;;;;1.11;88.58;98858.59;4982256;28;20063;-67
2023/10/07 02:01:58;;;;;;;0.00;0.00;;;;;;;1.06;88.70;98853.91;4983747;28;20548;-67
2023/10/07 02:04:26;;;;;;;0.00;0.00;;;;;;;1.01;88.81;98839.50;4985744;28;20058;-67
2023/10/07 02:06:54;;;;;;;0.10;0.10;;;;;;;0.96;89.26;98838.34;4999849;28;20538;-66
2023/10/07 02:09:27;;;;;;;0.10;0.10;;;;;;;0.96;89.57;98845.59;4986374;28;20042;-72
2023/10/07 02:11:56;;;;;;;0.00;0.00;;;;;;;0.89;89.63;98826.06;4983482;28;20129;-66
2023/10/07 02:14:24;;;;;;;0.00;0.00;;;;;;;0.94;89.46;98835.06;4983856;28;20439;-68
2023/10/07 02:16:52;;;;;;;0.00;0.00;;;;;;;0.97;89.00;98831.91;4972143;28;20054;-68
2023/10/07 02:19:29;;;;;;;0.00;0.00;;;;;;;0.94;89.06;98832.38;4962385;28;20411;-68
2023/10/07 02:22:23;;;;;;;0.05;0.05;;;;;;;0.95;89.22;98838.56;4963152;28;20722;-68
2023/10/07 02:25:04;;;;;;;0.00;0.00;;;;;;;0.96;88.77;98829.44;4963309;28;20049;-68
2023/10/07 02:27:48;;;;;;;0.00;0.00;;;;;;;0.95;88.63;98823.25;4947777;28;20057;-68
2023/10/07 02:30:20;;;;;;;0.10;0.10;;;;;;;0.92;88.86;98818.31;4964068;28;20466;-68
2023/10/07 02:32:48;;;;;;;0.00;0.00;;;;;;;0.95;88.39;98823.25;4969238;28;20046;-68
2023/10/07 02:35:19;;;;;;;0.10;0.10;;;;;;;0.93;87.95;98819.16;4981595;28;20438;-67
2023/10/07 02:37:49;;;;;;;0.10;0.10;;;;;;;0.91;88.54;98830.13;4981883;28;20046;-67
2023/10/07 02:40:35;;;;;;;0.10;0.10;;;;;;;0.91;88.42;98815.88;4981669;28;20065;-67
2023/10/07 02:43:07;;;;;;;0.10;0.10;;;;;;;0.97;88.47;98823.00;4982289;28;20145;-67
2023/10/07 02:45:39;;;;;;;0.10;0.10;;;;;;;0.99;87.75;98813.63;4964954;28;20597;-68
2023/10/07 02:48:11;;;;;;;0.00;0.00;;;;;;;0.94;87.19;98818.91;4982637;28;20514;-67
2023/10/07 02:50:41;;;;;;;0.00;0.00;;;;;;;0.86;87.23;98803.13;4982390;28;20054;-67
2023/10/07 02:53:27;;;;;;;0.00;0.00;;;;;;;0.89;87.60;98804.53;4982129;28;20042;-67
2023/10/07 02:55:56;;;;;;;0.10;0.10;;;;;;;0.92;88.19;98804.84;4983881;28;20518;-69
2023/10/07 02:58:48;;;;;;;0.10;0.10;;;;;;;0.84;87.95;98779.13;4969950;28;20136;-69
2023/10/07 03:01:18;;;;;;;0.10;0.10;;;;;;;1.05;87.59;98805.66;4976661;28;20043;-68
2023/10/07 03:03:53;;;;;;;0.10;0.10;;;;;;;1.07;86.92;98817.00;4947819;28;20112;-68
2023/10/07 03:06:25;;;;;;;0.00;0.00;;;;;;;1.08;86.14;98814.09;4961852;28;20054;-68
2023/10/07 03:09:09;;;;;;;0.00;0.00;;;;;;;1.01;84.98;98802.63;4963126;28;20537;-69
2023/10/07 03:11:40;;;;;;;0.00;0.00;;;;;;;1.04;84.41;98790.56;4962239;28;20094;-68
2023/10/07 03:14:12;;;;;;;0.10;0.10;;;;;;;1.07;84.34;98784.69;4970411;28;20117;-68
2023/10/07 03:16:48;;;;;;;0.10;0.10;;;;;;;1.05;84.14;98768.81;4964138;28;20422;-67
2023/10/07 03:19:22;;;;;;;0.10;0.10;;;;;;;1.14;84.07;98758.47;4962331;28;20050;-67
2023/10/07 03:21:55;;;;;;;0.00;0.00;;;;;;;1.15;83.85;98761.97;4986453;28;20136;-67
2023/10/07 03:24:29;;;;;;;0.10;0.10;;;;;;;1.18;84.50;98745.38;4982135;28;20137;-67
2023/10/07 03:27:05;;;;;;;0.00;0.00;;;;;;;1.24;85.51;98739.00;4979954;28;20592;-67
2023/10/07 03:29:36;;;;;;;0.00;0.00;;;;;;;1.22;85.42;98736.53;4975773;28;20046;-67
2023/10/07 03:32:12;;;;;;;0.10;0.10;;;;;;;1.34;85.62;98733.00;4961233;28;20101;-67
2023/10/07 03:34:42;;;;;;;0.00;0.00;;;;;;;1.31;85.19;98711.94;4963494;28;20047;-67
2023/10/07 03:42:38;;;;;;;0.10;0.10;;;;;;;1.43;85.39;98693.84;4921696;29;20612;-68
2023/10/07 03:45:05;;;;;;;0.00;0.00;;;;;;;1.38;85.44;98694.56;4954526;28;20046;-69
2023/10/07 03:47:32;;;;;;;0.10;0.10;;;;;;;1.38;85.96;98694.56;4962637;28;20073;-67
2023/10/07 03:49:59;;;;;;;0.10;0.10;;;;;;;1.44;85.91;98689.25;4962277;28;20074;-69
2023/10/07 03:52:28;;;;;;;0.10;0.10;;;;;;;1.43;85.83;98683.06;4948092;28;20522;-68
2023/10/07 03:54:57;;;;;;;0.10;0.10;;;;;;;1.44;85.70;98684.72;4965748;28;20533;-67
2023/10/07 03:57:24;;;;;;;0.10;0.10;;;;;;;1.45;85.72;98669.34;4982347;28;20070;-67
2023/10/07 03:59:53;;;;;;;0.00;0.00;;;;;;;1.47;85.98;98662.66;4964880;28;20153;-67
2023/10/07 04:05:00;;;;;;;0.10;0.10;;;;;;;1.39;84.67;98646.88;4975425;28;20054;-67
2023/10/07 04:07:30;;;;;;;0.00;0.00;;;;;;;1.44;84.29;98644.28;4971189;28;20418;-67
2023/10/07 04:10:11;;;;;;;0.10;0.10;;;;;;;1.50;83.97;98650.59;4966654;28;20061;-68
2023/10/07 04:12:39;;;;;;;0.10;0.10;;;;;;;1.59;83.72;98651.81;4976878;28;20046;-68
2023/10/07 04:15:12;;;;;;;0.10;0.10;;;;;;;1.58;82.80;98647.50;4960430;28;20239;-68
2023/10/07 04:17:39;;;;;;;0.10;0.10;;;;;;;1.58;82.80;98635.91;4967339;28;20050;-70
2023/10/07 04:20:18;;;;;;;0.10;0.10;;;;;;;1.59;83.02;98627.56;4966142;28;20046;-67
2023/10/07 04:22:57;;;;;;;0.10;0.10;;;;;;;1.64;82.66;98622.28;4963362;28;20062;-69
2023/10/07 04:25:24;;;;;;;0.10;0.10;;;;;;;1.72;82.52;98618.34;4966087;28;20047;-69
2023/10/07 04:27:53;;;;;;;0.00;0.00;;;;;;;1.78;82.65;98614.66;4965356;28;20153;-68
2023/10/07 04:30:38;;;;;;;0.10;0.10;;;;;;;1.79;82.31;98605.50;4965274;28;20338;-69
2023/10/07 04:33:08;;;;;;;0.10;0.10;;;;;;;1.81;81.39;98598.00;4978445;28;20141;-69
2023/10/07 04:35:35;;;;;;;0.10;0.10;;;;;;;1.81;81.68;98581.03;4982754;28;20455;-70
2023/10/07 04:38:38;;;;;;;0.10;0.10;;;;;;;1.90;81.78;98584.09;4622218;28;9999822;-69
2023/10/07 04:46:23;;;;;;;0.10;0.10;;;;;;;1.91;79.72;98562.28;4968070;28;20141;-67
2023/10/07 04:48:54;;;;;;;0.00;0.00;;;;;;;1.86;79.27;98567.59;4958728;28;20148;-67
2023/10/07 04:54:00;;;;;;;0.15;0.10;;;;;;;1.83;78.34;98562.72;4984197;28;20042;-67
2023/10/07 04:56:27;;;;;;;0.10;0.10;;;;;;;1.81;77.63;98554.06;4969901;28;20050;-66
2023/10/07 04:58:53;;;;;;;0.10;0.10;;;;;;;1.81;77.99;98560.25;4967927;28;20058;-66
2023/10/07 05:01:31;;;;;;;0.10;0.10;;;;;;;1.79;77.73;98543.53;4972525;28;20074;-66
2023/10/07 05:03:58;;;;;;;0.10;0.10;;;;;;;1.83;77.66;98552.72;4966264;28;20065;-66
2023/10/07 05:06:25;;;;;;;0.10;0.10;;;;;;;1.86;77.37;98529.03;4979891;28;20137;-66
2023/10/07 05:08:51;;;;;;;0.10;0.10;;;;;;;1.92;78.00;98522.66;4960240;28;20386;-66
2023/10/07 05:11:18;;;;;;;0.00;0.00;;;;;;;1.95;77.82;98514.06;4961258;28;20144;-66
2023/10/07 05:13:46;;;;;;;0.10;0.10;;;;;;;1.96;77.79;98523.78;4962078;28;20047;-66
2023/10/07 05:16:13;;;;;;;0.10;0.10;;;;;;;2.00;77.69;98511.44;4962954;28;20050;-66
2023/10/07 05:18:42;;;;;;;0.10;0.10;;;;;;;2.02;77.38;98495.81;4971850;28;20046;-66
2023/10/07 05:21:08;;;;;;;0.00;0.00;;;;;;;2.06;76.98;98496.13;4966970;28;20080;-66
2023/10/07 05:23:36;;;;;;;0.00;0.00;;;;;;;2.09;76.98;98485.69;4972986;28;20142;-66
2023/10/07 05:26:03;;;;;;;0.10;0.10;;;;;;;2.18;76.93;98488.75;4964842;28;20055;-66
2023/10/07 05:28:33;;;;;;;0.10;0.10;;;;;;;2.18;76.46;98479.81;4949057;28;20046;-67
2023/10/07 05:31:03;;;;;;;0.00;0.00;;;;;;;2.16;76.70;98463.09;4962698;28;20313;-67
2023/10/07 05:33:35;;;;;;;0.10;0.10;;;;;;;2.22;76.81;98465.59;4959640;28;20079;-68
2023/10/07 05:36:14;;;;;;;0.00;0.00;;;;;;;2.22;75.73;98452.09;4966108;28;20050;-68
2023/10/07 05:38:44;;;;;;;0.10;0.10;;;;;;;2.20;76.39;98442.66;4963094;28;20141;-68
2023/10/07 05:41:14;;;;;;;0.10;0.10;;;;;;;2.21;75.73;98442.38;4967367;28;20575;-67
2023/10/07 05:43:43;;;;;;;0.10;0.10;;;;;;;2.25;75.56;98437.31;4967221;28;20051;-68
2023/10/07 05:46:12;;;;;;;0.10;0.10;;;;;;;2.24;75.93;98419.50;4967772;28;20055;-68
2023/10/07 05:48:40;;;;;;;0.10;0.10;;;;;;;2.31;74.71;98411.19;4968616;28;20055;-68
2023/10/07 05:51:09;;;;;;;0.10;0.10;;;;;;;2.29;74.71;98394.47;4969533;28;20062;-67
2023/10/07 05:53:37;;;;;;;0.10;0.10;;;;;;;2.33;75.05;98382.88;4951416;28;20089;-66
2023/10/07 05:56:05;;;;;;;0.00;0.00;;;;;;;2.34;75.17;98384.53;4965122;28;20059;-67
2023/10/07 05:58:32;;;;;;;0.10;0.10;;;;;;;2.37;75.22;98372.41;4966447;28;20078;-67
2023/10/07 06:01:00;;;;;;;0.10;0.10;;;;;;;2.37;74.15;98369.72;4966860;28;20145;-68
2023/10/07 06:03:26;;;;;;;0.10;0.10;;;;;;;2.44;75.06;98359.53;4965394;28;20101;-68
2023/10/07 06:05:52;;;;;;;0.10;0.10;;;;;;;2.44;74.15;98342.53;4966176;28;20392;-68
2023/10/07 06:08:20;;;;;;;0.10;0.10;;;;;;;2.54;74.05;98342.63;4949136;28;20081;-68
2023/10/07 06:10:51;;;;;;;0.10;0.10;;;;;;;2.59;74.15;98339.16;4967436;28;20047;-68
2023/10/07 06:13:18;;;;;;;0.10;0.10;;;;;;;2.71;73.41;98331.66;4966388;28;20426;-68
2023/10/07 06:15:45;;;;;;;0.10;0.10;;;;;;;2.65;72.84;98308.41;4967029;28;20050;-68
2023/10/07 06:18:12;;;;;;;0.10;0.10;;;;;;;2.67;73.37;98301.69;4953197;28;20348;-68
2023/10/07 06:20:38;;;;;;;0.10;0.10;;;;;;;2.77;73.28;98290.16;4949905;28;20047;-68
2023/10/07 06:23:13;;;;;;;0.10;0.10;;;;;;;2.83;73.12;98281.00;4979332;28;20514;-68
2023/10/07 06:25:48;;;;;;;0.10;0.10;;;;;;;2.82;71.80;98255.06;4997386;28;20434;-66
2023/10/07 06:28:24;;;;;;;0.10;0.10;;;;;;;2.81;71.16;98260.72;4959179;28;20057;-66
2023/10/07 06:30:51;;;;;;;0.10;0.10;;;;;;;2.80;70.30;98251.00;4972177;28;20046;-66
2023/10/07 06:33:19;;;;;;;;;;;;;;;2.69;71.15;98245.56;4967925;28;20478;-68
2023/10/07 06:35:45;;;;;;;0.00;0.00;;;;;;;2.73;70.89;98242.34;4981955;28;19925;-66
2023/10/07 06:38:12;;;;;;;0.10;0.10;;;;;;;2.74;70.57;98233.16;4979056;28;20341;-68
2023/10/07 06:40:40;;;;;;;0.10;0.10;;;;;;;2.76;69.90;98231.84;4964382;28;20503;-68
2023/10/07 06:43:14;;;;;;;0.10;0.10;;;;;;;2.78;70.60;98224.28;4963157;28;20047;-68
2023/10/07 06:45:44;;;;;;;0.10;0.10;;;;;;;2.79;70.81;98206.19;4961860;28;20565;-66
2023/10/07 06:48:12;;;;;;;0.10;0.10;;;;;;;2.79;70.65;98206.19;4962172;28;20043;-66
2023/10/07 06:50:43;;;;;;;0.10;0.10;;;;;;;2.79;70.64;98198.09;4961472;28;20138;-66
2023/10/07 06:53:18;;;;;;;0.10;0.10;;;;;;;2.72;71.15;98178.63;4968261;28;20490;-67
2023/10/07 06:55:47;;;;;;;0.10;0.10;;;;;;;2.65;72.00;98157.28;4969120;28;20133;-68
2023/10/07 06:58:15;;;;;;;0.10;0.10;;;;;;;2.57;73.48;98153.19;4961630;28;20054;-68
2023/10/07 07:00:47;;;;;;;0.10;0.10;;;;;;;2.54;74.72;98148.31;4964583;28;20066;-67
2023/10/07 07:03:14;;;;;;;0.10;0.10;;;;;;;2.57;75.42;98139.69;4967532;28;20549;-67
2023/10/07 07:05:40;;;;;;;0.00;0.00;;;;;;;2.51;76.15;98151.56;4979176;28;20049;-67
2023/10/07 07:08:10;;;;;;;0.10;0.10;;;;;;;2.48;77.03;98142.09;4979549;28;20569;-68
2023/10/07 07:10:37;;;;;;;0.00;0.00;;;;;;;2.33;77.92;98117.72;4962463;28;20086;-69
2023/10/07 07:13:12;;;;;;;0.10;0.10;;;;;;;2.00;79.98;98106.22;4962957;28;20057;-69
2023/10/07 07:15:45;;;;;;;0.00;0.00;;;;;;;1.82;81.71;98071.31;4946215;28;20415;-67
2023/10/07 07:20:49;;;;;;;0.10;0.10;;;;;;;1.92;83.77;98086.75;4960349;28;20047;-67
2023/10/07 07:23:16;;;;;;;0.10;0.10;;;;;;;1.92;84.89;98085.94;4964648;28;20046;-67
2023/10/07 07:25:53;;;;;;;0.10;0.10;;;;;;;1.96;85.30;98068.19;4968354;28;20077;-67
2023/10/07 07:28:20;;;;;;;0.10;0.10;;;;;;;1.97;85.62;98065.22;4969200;28;20051;-67
2023/10/07 07:30:47;;;;;;;0.00;0.00;;;;;;;1.93;86.58;98056.03;4968902;28;20058;-68
2023/10/07 07:33:15;;;;;;;0.10;0.10;;;;;;;1.96;86.87;98060.91;4968459;28;20042;-68
2023/10/07 07:35:43;;;;;;;;;;;;;;;1.90;88.03;98021.50;4980902;28;20054;-69
2023/10/07 07:38:17;;;;;;;0.10;0.10;;;;;;;1.88;88.60;98015.56;4975584;28;19925;-68
2023/10/07 07:40:44;;;;;;;0.00;0.00;;;;;;;1.91;89.34;97995.38;4969328;28;20728;-67
2023/10/07 07:43:13;;;;;;;0.10;0.10;;;;;;;1.95;89.74;97983.81;4969572;28;20047;-66
2023/10/07 07:45:39;;;;;;;0.00;0.00;;;;;;;1.95;89.93;97966.81;4968588;28;20732;-66
2023/10/07 07:48:10;;;;;;;0.10;0.10;;;;;;;1.95;90.57;97964.13;4967161;28;20078;-67
2023/10/07 07:50:41;;;;;;;0.10;0.10;;;;;;;1.82;91.26;97933.88;4968073;28;20054;-67
2023/10/07 07:53:08;;;;;;;0.10;0.10;;;;;;;1.94;92.55;97949.03;4967691;28;20511;-68
2023/10/07 07:55:37;;;;;;;0.10;0.10;;;;;;;2.01;93.27;97949.56;4969878;28;20137;-68
2023/10/07 07:58:04;;;;;;;0.00;0.00;;;;;;;2.00;94.13;97939.88;4969025;28;20142;-68
2023/10/07 08:00:31;;;;;;;0.10;0.10;;;;;;;1.97;95.11;97925.03;4952120;28;20403;-67
2023/10/07 08:02:58;;;;;;;0.10;0.10;;;;;;;2.00;95.49;97909.41;4967951;28;20324;-67
2023/10/07 08:05:34;;;;;;;0.00;0.00;;;;;;;1.95;95.44;97897.53;4965522;28;20043;-67
2023/10/07 08:08:09;;;;;;;0.00;0.00;;;;;;;1.93;96.39;97875.41;4967621;28;20042;-67
2023/10/07 08:10:36;;;;;;;0.08;0.08;;;;;;;2.02;96.81;97877.59;4968183;28;20061;-67
2023/10/07 08:13:06;;;;;;;0.00;0.00;;;;;;;1.94;97.11;97838.50;4977392;28;20050;-69
2023/10/07 08:15:39;;;;;;;0.10;0.10;;;;;;;2.04;97.38;97832.31;4969027;28;20058;-68
2023/10/07 08:18:06;;;;;;;0.10;0.10;;;;;;;2.08;97.59;97826.13;4987815;28;20528;-68
2023/10/07 08:20:37;;;;;;;0.10;0.10;;;;;;;2.15;97.72;97807.00;4988419;28;20042;-67
2023/10/07 08:23:07;;;;;;;0.10;0.10;;;;;;;2.20;97.80;97798.91;4987458;28;20561;-67
2023/10/07 08:28:19;;;;;;;0.10;0.10;;;;;;;2.28;98.27;97765.19;4990185;28;20410;-68
2023/10/07 08:30:49;;;;;;;0.00;0.00;;;;;;;2.26;98.39;97746.59;4988036;28;20072;-67
2023/10/07 08:33:16;;;;;;;0.10;0.10;;;;;;;2.22;98.66;97729.31;4984133;28;20046;-68
2023/10/07 08:35:47;;;;;;;0.10;0.10;;;;;;;2.27;99.12;97715.03;4963191;28;20042;-68
2023/10/07 08:38:37;;;;;;;0.10;0.10;;;;;;;2.35;99.82;97722.59;4967837;28;20081;-67
2023/10/07 08:41:07;;;;;;;0.10;0.10;;;;;;;2.31;100.00;97708.00;4987476;28;20042;-67
2023/10/07 08:46:28;;;;;;;0.10;0.10;;;;;;;2.26;100.00;97689.97;4926994;29;20465;-67
2023/10/07 08:49:06;;;;;;;0.00;0.00;;;;;;;2.39;100.00;97706.66;4910399;29;20055;-68
2023/10/07 08:51:40;;;;;;;0.10;0.10;;;;;;;2.36;100.00;97686.44;4924212;29;20547;-67
2023/10/07 08:54:26;;;;;;;0.10;0.10;;;;;;;2.40;100.00;97684.81;4925552;29;20479;-67
2023/10/07 08:56:57;;;;;;;0.00;0.00;;;;;;;2.50;100.00;97685.88;4924620;29;20055;-67
2023/10/07 08:59:25;;;;;;;0.05;0.05;;;;;;;2.45;100.00;97675.06;4921037;29;20436;-67
2023/10/07 09:02:00;;;;;;;0.10;0.10;;;;;;;2.49;100.00;97659.94;4908661;29;20145;-68
2023/10/07 09:04:33;;;;;;;0.10;0.10;;;;;;;2.49;100.00;97649.97;4907698;29;20061;-67
2023/10/07 09:07:11;;;;;;;0.10;0.10;;;;;;;2.53;100.00;97666.44;4910635;29;20080;-67
2023/10/07 09:09:38;;;;;;;0.10;0.10;;;;;;;2.56;100.00;97633.50;4926974;29;20444;-67
2023/10/07 09:15:20;;;;;;;0.10;0.10;;;;;;;2.64;100.00;97607.84;4870893;29;20217;-67
2023/10/07 09:17:47;;;;;;;0.10;0.10;;;;;;;2.63;100.00;97609.72;4868802;29;20157;-67
2023/10/07 09:20:17;;;;;;;0.10;0.10;;;;;;;2.71;100.00;97577.84;4886870;29;20068;-67
2023/10/07 09:22:46;;;;;;;0.10;0.10;;;;;;;2.71;100.00;97599.44;4893541;29;20060;-68
2023/10/07 09:25:19;;;;;;;0.00;0.00;;;;;;;2.76;100.00;97591.31;4895697;29;20047;-68
2023/10/07 09:27:56;;;;;;;0.08;0.08;;;;;;;2.78;100.00;97548.66;4927155;29;20159;-67
2023/10/07 09:30:38;;;;;;;0.10;0.10;;;;;;;2.79;100.00;97564.59;4900371;29;20044;-67
2023/10/07 09:33:12;;;;;;;0.10;0.10;;;;;;;2.82;100.00;97561.31;4907696;29;20110;-68
2023/10/07 09:35:42;;;;;;;0.10;0.10;;;;;;;2.82;100.00;97536.25;4906399;29;20143;-69
2023/10/07 09:41:12;;;;;;;0.10;0.10;;;;;;;2.91;100.00;97529.16;4872066;29;20096;-68
2023/10/07 09:43:47;;;;;;;0.00;0.00;;;;;;;2.92;100.00;97528.06;4887207;29;20051;-67
2023/10/07 09:46:27;;;;;;;0.00;0.00;;;;;;;2.94;100.00;97498.88;4878611;29;20059;-68
2023/10/07 09:48:57;;;;;;;0.10;0.10;;;;;;;2.93;100.00;97494.56;4942444;28;20062;-68
2023/10/07 09:51:34;;;;;;;0.10;0.10;;;;;;;2.90;100.00;97467.34;4947939;28;20089;-68
2023/10/07 09:54:16;;;;;;;0.10;0.10;;;;;;;2.98;100.00;97477.53;4948159;29;20054;-67
2023/10/07 09:56:58;;;;;;;0.10;0.10;;;;;;;3.07;100.00;97451.56;4945923;28;20051;-68
2023/10/07 09:59:32;;;;;;;0.10;0.10;;;;;;;3.06;100.00;97449.13;4908414;29;20060;-67
2023/10/07 10:02:25;;;;;;;0.10;0.10;;;;;;;3.11;100.00;97444.50;4922948;29;20127;-68
2023/10/07 10:05:06;;;;;;;0.10;0.10;;;;;;;3.20;100.00;97423.09;4925151;29;20203;-68
2023/10/07 10:08:19;;;;;;;0.10;0.10;;;;;;;3.20;100.00;97431.19;4929715;28;20055;-68
2023/10/07 10:10:49;;;;;;;0.10;0.10;;;;;;;3.17;100.00;97403.94;4946163;28;20078;-67
2023/10/07 10:16:14;;;;;;;0.10;0.10;;;;;;;3.27;100.00;97390.34;4931550;28;20047;-68
2023/10/07 10:18:43;;;;;;;0.10;0.10;;;;;;;3.31;100.00;97375.16;4945603;28;20054;-68
2023/10/07 10:21:12;;;;;;;0.10;0.10;;;;;;;3.35;100.00;97384.28;4985042;28;20536;-67
2023/10/07 10:23:44;;;;;;;0.10;0.10;;;;;;;3.37;100.00;97351.59;4988580;28;20050;-73
2023/10/07 10:26:20;;;;;;;0.00;0.00;;;;;;;3.43;100.00;97353.13;4973528;28;20808;-68
2023/10/07 10:29:00;;;;;;;0.10;0.10;;;;;;;3.45;100.00;97369.91;4958329;28;20046;-68
2023/10/07 10:31:32;;;;;;;0.10;0.10;;;;;;;3.48;100.00;97326.09;4961776;28;20205;-69
2023/10/07 10:34:04;;;;;;;0.10;0.10;;;;;;;3.58;100.00;97324.34;4962011;28;20238;-68
2023/10/07 10:36:35;;;;;;;0.10;0.10;;;;;;;3.42;100.00;97275.09;4948079;28;20050;-68
2023/10/07 10:39:05;;;;;;;0.10;0.10;;;;;;;3.69;100.00;97307.72;4965841;28;20387;-67
2023/10/07 10:41:33;;;;;;;0.10;0.10;;;;;;;3.73;100.00;97274.69;4967885;28;20058;-68
2023/10/07 10:44:06;;;;;;;0.10;0.10;;;;;;;3.80;100.00;97275.94;4964983;28;20166;-68
2023/10/07 10:46:46;;;;;;;0.05;0.05;;;;;;;3.88;100.00;97277.19;4967724;28;20067;-68
2023/10/07 10:49:16;;;;;;;0.10;0.10;;;;;;;3.95;100.00;97252.50;4958963;28;20486;-68
2023/10/07 10:51:46;;;;;;;0.10;0.10;;;;;;;3.97;100.00;97245.66;4967148;28;20050;-68
2023/10/07 10:54:14;;;;;;;0.10;0.10;;;;;;;4.03;100.00;97242.91;4968624;28;20050;-68
2023/10/07 10:56:50;;;;;;;0.10;0.10;;;;;;;4.04;100.00;97244.50;4963292;28;20109;-68
2023/10/07 10:59:18;;;;;;;0.00;0.00;;;;;;;4.08;100.00;97249.03;4950746;28;20097;-68
2023/10/07 11:01:48;;;;;;;0.00;0.00;;;;;;;4.10;100.00;97221.69;4967121;28;20082;-67
2023/10/07 11:04:15;;;;;;;0.00;0.00;;;;;;;4.13;100.00;97250.06;4971204;28;20143;-68
2023/10/07 11:06:41;;;;;;;0.00;0.00;;;;;;;4.21;100.00;97214.19;4987128;28;20069;-68
2023/10/07 11:09:09;;;;;;;0.10;0.10;;;;;;;4.20;100.00;97199.88;4967259;28;20064;-67
2023/10/07 11:11:37;;;;;;;0.10;0.10;;;;;;;4.25;100.00;97190.88;4968182;28;20047;-68
2023/10/07 11:14:13;;;;;;;0.10;0.10;;;;;;;4.26;100.00;97182.47;4951154;28;20255;-68
2023/10/07 11:16:46;;;;;;;0.10;0.10;;;;;;;4.30;100.00;97185.38;4966560;28;20055;-68
2023/10/07 11:19:14;;;;;;;0.10;0.10;;;;;;;4.32;100.00;97177.75;4978053;28;20137;-68
2023/10/07 11:21:44;;;;;;;0.10;0.10;;;;;;;4.36;100.00;97157.13;4986108;28;20050;-68
2023/10/07 11:24:14;;;;;;;0.10;0.10;;;;;;;4.39;100.00;97142.19;4964611;28;20053;-68
2023/10/07 11:26:42;;;;;;;0.10;0.10;;;;;;;4.39;100.00;97125.97;4969367;28;20132;-67
2023/10/07 11:29:15;;;;;;;0.10;0.10;;;;;;;4.15;100.00;97123.44;4986114;28;20505;-67
2023/10/07 11:31:42;;;;;;;0.10;0.10;;;;;;;4.44;100.00;97122.38;4983996;28;20054;-68
2023/10/07 11:34:10;;;;;;;0.10;0.10;;;;;;;4.46;100.00;97104.75;4986097;28;20070;-67
2023/10/07 11:36:46;;;;;;;0.10;0.10;;;;;;;4.47;100.00;97098.22;4983935;28;20057;-67
2023/10/07 11:39:15;;;;;;;0.10;0.10;;;;;;;4.52;100.00;97092.69;4949119;28;20097;-68
2023/10/07 11:41:42;;;;;;;0.10;0.10;;;;;;;4.58;100.00;97093.41;4964833;28;20762;-68
2023/10/07 11:44:09;;;;;;;0.10;0.10;;;;;;;4.60;100.00;97093.09;4967055;28;20492;-68
2023/10/07 11:46:41;;;;;;;0.00;0.00;;;;;;;4.63;100.00;97073.56;4980279;28;20047;-69
2023/10/07 11:49:08;;;;;;;0.10;0.10;;;;;;;4.67;100.00;97061.03;4982949;28;20116;-68
2023/10/07 11:51:34;;;;;;;0.10;0.10;;;;;;;4.64;100.00;97043.47;4965698;28;20043;-68
2023/10/07 11:54:01;;;;;;;0.00;0.00;;;;;;;4.74;100.00;97042.44;4965958;28;20046;-68
2023/10/07 11:56:28;;;;;;;0.00;0.00;;;;;;;4.78;100.00;97056.19;4964705;28;20046;-68
2023/10/07 11:58:54;;;;;;;0.00;0.00;;;;;;;4.79;100.00;97041.53;4967295;28;20514;-68
2023/10/07 12:01:23;;;;;;;0.10;0.10;;;;;;;4.81;100.00;97048.25;4987554;28;20078;-68
2023/10/07 12:03:52;;;;;;;0.10;0.10;;;;;;;4.85;100.00;97017.88;4966900;28;20493;-68
2023/10/07 12:06:19;;;;;;;0.10;0.10;;;;;;;4.90;100.00;97026.69;4988387;28;20039;-68
2023/10/07 12:08:45;;;;;;;0.10;0.10;;;;;;;4.96;100.00;97017.31;4963105;28;20542;-69
2023/10/07 12:11:12;;;;;;;0.10;0.10;;;;;;;4.99;100.00;97012.41;4968237;28;20051;-67
2023/10/07 12:13:40;;;;;;;0.10;0.10;;;;;;;5.05;100.00;96994.94;4987647;28;20053;-67
2023/10/07 12:16:07;;;;;;;0.10;0.10;;;;;;;5.06;100.00;96980.28;4969581;28;20145;-68
2023/10/07 12:18:34;;;;;;;0.10;0.10;;;;;;;5.17;100.00;96983.53;4968032;28;20130;-68
2023/10/07 12:21:02;;;;;;;0.10;0.10;;;;;;;5.19;100.00;96975.91;4967548;28;20057;-67
2023/10/07 12:23:29;;;;;;;0.10;0.10;;;;;;;5.20;100.00;96974.78;4970171;28;20057;-67
2023/10/07 12:25:55;;;;;;;0.10;0.10;;;;;;;5.20;100.00;96967.47;4977434;28;20046;-67
2023/10/07 12:28:21;;;;;;;0.10;0.10;;;;;;;5.17;100.00;96945.63;4988332;28;20061;-68
2023/10/07 12:30:49;;;;;;;0.10;0.10;;;;;;;5.20;100.00;96939.56;4970715;28;20047;-69
2023/10/07 12:33:15;;;;;;;0.10;0.10;;;;;;;5.24;100.00;96937.88;4967902;28;20478;-67
2023/10/07 12:35:42;;;;;;;0.10;0.10;;;;;;;5.23;100.00;96928.94;4966960;28;20051;-68
2023/10/07 12:38:09;;;;;;;0.10;0.10;;;;;;;5.26;100.00;96908.56;4966623;28;20075;-68
2023/10/07 12:40:41;;;;;;;0.10;0.10;;;;;;;5.27;100.00;96899.31;4951456;28;20541;-66
2023/10/07 12:43:07;;;;;;;0.10;0.10;;;;;;;5.25;100.00;96905.03;4966085;28;20043;-67